Flight Track Log - Related Links

Times and Time Zones

All times are in EDT time to prevent confusion due to time zone crossing. See the AAY800 flight status page for this flight to view local times or setup timezone preferences in your user account.

Time Position Orientation Groundspeed Altitude Reporting Facility
EDT Latitude Longitude Course Direction KTS MPH feet Rate Location/Type
Tue 07:51:49 AM 27.9000 -82.6833 North 159 183 800  Level Tampa TRACON
Tue 07:52:43 AM 27.8500 -82.6833 180° South 179 206 2,300 2,056 Climbing Tampa TRACON
Tue 07:53:37 AM 27.8000 -82.7000 196° South 198 228 4,500 1,774 Climbing Tampa TRACON
Tue 07:54:38 AM 27.8167 -82.7667 286° West 266 306 5,700 2,033 Climbing Tampa TRACON
Tue 07:55:38 AM 27.9000 -82.7500 10° North 323 372 8,600 2,526 Climbing Tampa TRACON
Tue 07:56:32 AM 27.9667 -82.7167 24° Northeast 327 376 10,500 1,290 Climbing Tampa TRACON
Tue 07:57:00 AM 28.6168 -82.6444 North  Level FlightAware Approximate
Tue 07:58:44 AM 28.1997 -82.6478 15° North 379 436 12,600  Level Jacksonville Center
Tue 07:59:44 AM 28.3144 -82.6192 12° North 403 464 14,800 1,550 Climbing Jacksonville Center
Tue 08:00:44 AM 28.4292 -82.6186 360° North 419 482 15,700 1,050 Climbing Jacksonville Center
Tue 08:01:44 AM 28.5378 -82.6256 357° North 399 459 16,900 1,700 Climbing Jacksonville Center
Tue 08:02:44 AM 28.6464 -82.6206 North 388 447 19,100 1,900 Climbing Jacksonville Center
Tue 08:03:44 AM 28.7569 -82.6083 North 388 447 20,700 1,600 Climbing Jacksonville Center
Tue 08:04:44 AM 28.8736 -82.5939 North 398 458 22,300 1,250 Climbing Jacksonville Center
Tue 08:05:44 AM 28.9822 -82.5839 North 414 476 23,200 1,000 Climbing Jacksonville Center
Tue 08:06:44 AM 29.1094 -82.5694 North 436 502 24,300 1,400 Climbing Jacksonville Center
Tue 08:07:44 AM 29.2431 -82.5547 North 456 525 26,000 1,750 Climbing Jacksonville Center
Tue 08:08:44 AM 29.3703 -82.5400 North 464 534 27,800 1,500 Climbing Jacksonville Center
Tue 08:09:44 AM 29.4978 -82.5228 North 464 534 29,000 1,500 Climbing Jacksonville Center
Tue 08:10:44 AM 29.6250 -82.5031 North 464 534 30,800 1,000 Climbing Jacksonville Center
Tue 08:11:44 AM 29.7503 -82.4858 North 464 534 31,000 100 Climbing Jacksonville Center
Tue 08:12:44 AM 29.8756 -82.4925 357° North 458 527 31,000 400 Level Jacksonville Center
Tue 08:13:44 AM 30.0006 -82.4536 15° North 453 521 31,800 800 Climbing Jacksonville Center
Tue 08:14:44 AM 30.1236 -82.3956 22° Northeast 460 529 32,600 600 Climbing Jacksonville Center
Tue 08:15:44 AM 30.2486 -82.3394 21° North 465 535 33,000 198 Climbing Jacksonville Center
Tue 08:16:45 AM 30.3736 -82.2883 19° North 465 535 33,000  Level Jacksonville Center
Tue 08:17:44 AM 30.4967 -82.2392 19° North 465 535 33,000 -50 Level Jacksonville Center
Tue 08:18:44 AM 30.6236 -82.1925 18° North 470 541 32,900 -50 Descending Jacksonville Center
Tue 08:19:44 AM 30.7508 -82.1456 18° North 470 541 32,900 50 Level Jacksonville Center
Tue 08:20:44 AM 30.8761 -82.1567 356° North 457 526 33,000  Climbing Jacksonville Center
Tue 08:21:44 AM 30.9994 -82.1922 346° North 443 510 32,900 -50 Descending Jacksonville Center
Tue 08:22:44 AM 31.1189 -82.2325 344° North 437 503 32,900  Level Jacksonville Center
Tue 08:23:44 AM 31.2400 -82.2753 343° North 442 509 32,900 50 Level Jacksonville Center
Tue 08:24:44 AM 31.3614 -82.3158 344° North 447 514 33,000 38 Climbing Jacksonville Center
Tue 08:26:22 AM 31.5728 -82.3814 345° North 463 533 33,000  Level Atlanta Center
Tue 08:27:22 AM 31.6983 -82.4231 344° North 457 526 33,000  Level Atlanta Center
Tue 08:28:22 AM 31.8222 -82.4647 344° North 457 526 33,000  Level Atlanta Center
Tue 08:29:22 AM 31.9519 -82.5089 344° North 464 534 33,000  Level Atlanta Center
Tue 08:30:22 AM 32.0672 -82.5464 345° North 470 541 33,000  Level Atlanta Center
Tue 08:31:22 AM 32.1953 -82.5908 344° North 470 541 33,000  Level Atlanta Center
Tue 08:32:22 AM 32.3231 -82.6328 344° North 470 541 33,000 150 Level Atlanta Center
Tue 08:33:22 AM 32.4508 -82.6753 344° North 476 548 33,300 450 Climbing Atlanta Center
Tue 08:34:22 AM 32.5744 -82.7200 343° North 476 548 33,900 350 Climbing Atlanta Center
Tue 08:35:22 AM 32.7042 -82.7625 345° North 476 548 34,000 50 Climbing Atlanta Center
Tue 08:36:22 AM 32.8342 -82.8028 345° North 476 548 34,000  Level Atlanta Center
Tue 08:37:22 AM 32.9619 -82.8406 346° North 476 548 34,000  Level Atlanta Center
Tue 08:38:22 AM 33.0917 -82.8808 345° North 476 548 34,000  Level Atlanta Center
Tue 08:39:22 AM 33.2192 -82.9164 347° North 476 548 34,000  Level Atlanta Center
Tue 08:40:22 AM 33.3636 -82.9569 347° North 476 548 34,000  Level Atlanta Center
Tue 08:41:22 AM 33.4914 -82.9950 346° North 468 539 34,000  Level Atlanta Center
Tue 08:42:22 AM 33.6211 -83.0308 347° North 475 547 34,000 -200 Level Atlanta Center
Tue 08:43:22 AM 33.7528 -83.0694 346° North 475 547 33,600 -700 Descending Atlanta Center
Tue 08:44:22 AM 33.8847 -83.1081 346° North 475 547 32,600 -1,000 Descending Atlanta Center
Tue 08:45:22 AM 34.0144 -83.1467 346° North 480 552 31,600 -800 Descending Atlanta Center
Tue 08:46:22 AM 34.1525 -83.1878 346° North 489 563 31,000 -350 Descending Atlanta Center
Tue 08:47:22 AM 34.2861 -83.2267 346° North 489 563 30,900 -350 Descending Atlanta Center
Tue 08:48:22 AM 34.4053 -83.2633 346° North 489 563 30,300 -450 Descending Atlanta Center
Tue 08:49:22 AM 34.5456 -83.3050 346° North 494 568 30,000 -150 Descending Atlanta Center
Tue 08:50:22 AM 34.6772 -83.3467 345° North 489 563 30,000  Level Atlanta Center
Tue 08:51:22 AM 34.8111 -83.3886 346° North 494 568 30,000  Level Atlanta Center
Tue 08:52:22 AM 34.9469 -83.4281 347° North 494 568 30,000  Level Atlanta Center
Tue 08:53:22 AM 35.0847 -83.4678 347° North 494 568 30,000  Level Atlanta Center
Tue 08:54:22 AM 35.2353 -83.5150 346° North 494 568 30,000  Level Atlanta Center
Tue 08:55:22 AM 35.3689 -83.5547 346° North 494 568 30,000  Level Atlanta Center
Tue 08:56:22 AM 35.5067 -83.5975 346° North 494 568 30,000  Level Atlanta Center
Tue 08:57:22 AM 35.6425 -83.6400 346° North 494 568 30,000  Level Atlanta Center
Tue 08:58:22 AM 35.7783 -83.6803 346° North 489 563 30,000  Level Atlanta Center
Tue 08:59:22 AM 35.9161 -83.7258 345° North 489 563 30,000  Level Atlanta Center
Tue 09:00:22 AM 36.0539 -83.7664 347° North 494 568 30,000  Level Atlanta Center
Tue 09:01:19 AM 36.1597 -83.7978 347° North 507 583 30,000  Level Indianapolis Center
Tue 09:02:21 AM 36.3253 -83.8500 346° North 508 585 30,000  Level Indianapolis Center
Tue 09:03:23 AM 36.4642 -83.8936 346° North 511 588 30,000  Level Indianapolis Center
Tue 09:04:25 AM 36.6183 -83.9425 346° North 518 596 30,000  Level Indianapolis Center
Tue 09:05:27 AM 36.7600 -83.9869 346° North 518 596 30,000  Level Indianapolis Center
Tue 09:06:29 AM 36.9014 -84.0319 346° North 519 597 30,000  Level Indianapolis Center
Tue 09:07:31 AM 37.0467 -84.0633 350° North 529 609 30,000  Level Indianapolis Center
Tue 09:08:33 AM 37.1956 -84.0856 353° North 532 612 30,000  Level Indianapolis Center
Tue 09:09:35 AM 37.3417 -84.1089 353° North 532 612 30,000  Level Indianapolis Center
Tue 09:10:37 AM 37.4892 -84.1306 353° North 532 612 30,000  Level Indianapolis Center
Tue 09:11:39 AM 37.6644 -84.1342 359° North 546 628 30,000  Level Indianapolis Center
Tue 09:12:41 AM 37.8192 -84.1139 North 554 638 30,000  Level Indianapolis Center
Tue 09:13:43 AM 37.9733 -84.0936 North 554 638 30,000  Level Indianapolis Center
Tue 09:14:45 AM 38.1272 -84.0742 North 554 638 30,000  Level Indianapolis Center
Tue 09:15:47 AM 38.2803 -84.0553 North 554 638 30,000  Level Indianapolis Center
Tue 09:16:49 AM 38.4342 -84.0350 North 554 638 30,000  Level Indianapolis Center
Tue 09:17:51 AM 38.6131 -84.0131 North 553 636 30,000  Level Indianapolis Center
Tue 09:18:53 AM 38.7719 -83.9931 North 553 636 30,000  Level Indianapolis Center
Tue 09:19:54 AM 38.9253 -83.9728 North 553 636 30,000  Level Indianapolis Center
Tue 09:20:56 AM 39.0772 -83.9539 North 553 636 30,000 -97 Level Indianapolis Center
Tue 09:21:58 AM 39.2283 -83.9339 North 550 633 29,800 -581 Descending Indianapolis Center
Tue 09:23:00 AM 39.3814 -83.9139 North 550 633 28,800 -968 Descending Indianapolis Center
Tue 09:24:02 AM 39.5358 -83.8958 North 551 634 27,800 -1,016 Descending Indianapolis Center
Tue 09:25:04 AM 39.6906 -83.8753 North 551 634 26,700 -1,113 Descending Indianapolis Center
Tue 09:26:06 AM 39.8472 -83.8544 North 555 639 25,500 -1,306 Descending Indianapolis Center
Tue 09:27:08 AM 40.0311 -83.8292 North 552 635 24,000 -726 Descending Indianapolis Center
Tue 09:28:10 AM 40.1797 -83.8097 North 537 618 24,000  Level Indianapolis Center
Tue 09:29:12 AM 40.3283 -83.7906 North 535 616 24,000 -339 Level Indianapolis Center
Tue 09:30:14 AM 40.4778 -83.7708 North 535 616 23,300 -1,161 Descending Indianapolis Center
Tue 09:31:16 AM 40.6233 -83.7508 North 531 611 21,600 -1,984 Descending Indianapolis Center
Tue 09:32:18 AM 40.7633 -83.7308 North 515 593 19,200 -2,371 Descending Indianapolis Center
Tue 09:33:20 AM 40.8981 -83.7131 North 495 570 16,700 -2,903 Descending Indianapolis Center
Tue 09:34:22 AM 41.0461 -83.6925 North 454 522 13,200 -2,468 Descending Indianapolis Center
Tue 09:35:24 AM 41.1478 -83.6806 North 412 474 11,600 -1,355 Descending Indianapolis Center
Tue 09:36:26 AM 41.2478 -83.6658 North 372 428 10,400 -1,210 Descending Indianapolis Center
Tue 09:37:28 AM 41.3261 -83.6350 16° North 306 352 9,100 -1,984 Descending Indianapolis Center
Tue 09:38:30 AM 41.4125 -83.6031 15° North 280 322 6,300 -2,129 Descending Indianapolis Center
Tue 09:39:32 AM 41.4828 -83.5814 13° North 268 308 4,700 -1,403 Descending Indianapolis Center
Tue 09:40:34 AM 41.5472 -83.5625 12° North 254 292 3,400 -1,030 Descending Indianapolis Center
Tue 09:41:46 AM 41.6067 -83.5900 341° North 216 249 2,400 -448 Descending Cleveland Center
Tue 09:42:48 AM 41.6236 -83.6433 293° West 182 209 2,400 -48 Level Cleveland Center
Tue 09:43:50 AM 41.6219 -83.6969 268° West 170 196 2,300 -390 Descending Cleveland Center
Tue 09:44:51 AM 41.6083 -83.7442 249° West 149 171 1,600 -689 Descending Cleveland Center
Tue 09:46:00 AM 41.5833 -83.8000 255° West  Level FlightAware Approximate

Login

Don't have an account? Register now (free) for customized features, flight alerts, and more!